Terminal Aerodrome Forecast
Issued by NWS Boise, ID

Home | Current Version | Previous Version | Text Only | Print | Product List | Glossary On
Versions: 1 2 3 4 5 6 7 8 9 10 11 12 13
000
FTUS45 KBOI 250520
TAFBOI
TAF
KBOI 250520Z 2506/2606 14005KT 6SM BR SCT200
     FM251500 13012KT P6SM SCT200
     FM252300 14010KT P6SM BKN100=

USA.gov is the U.S. government's official web portal to all federal, state and local government web resources and services.